Cedarfalls, Iowa
Current Conditions -  °F | °C
As of 6:54 AM on Thursday 23 Oct 2014 (Local Time) from KALO Reporting Station
Overcast Overcast  
Wind Chill:   Ceiling: 4800
Heat Index:   Visibility: 10mi
Dew Point:   Wind: 8mph
Humidity: 86%   Direction: 160°SSE
Pressure: 30.04"   Gusts: NA
Location:  42.5035°N, 92.4936°W
Report Text: KALO 231154Z 16007KT 10SM BKN048 OVC060 09/07 A3004 RMK AO2 RAB10E19 SLP175 P0000 60017 70017 T00890067 10111 20089 58016
Loading
Personal Weather Stations






























Interactive Weather Map
Tropical Storm Tracking
New forecast layout! Learn more

10-Day Weather Forecast

Advertisements
Track Severe Weather on mobile